Granville, North Dakota
Current Conditions -  °F | °C
As of 11:54 PM on Friday 28 Nov 2014 (Local Time) from KMOT Reporting Station
Broken Clouds Broken Clouds  
Wind Chill:   Ceiling: 10000
Heat Index:   Visibility: 10mi
Dew Point:   Wind: 0mph
Humidity: 84%   Direction: NA
Pressure: 29.43"   Gusts: NA
Location:  48.27°N, 100.84°W
Report Text: KMOT 290554Z AUTO 00000KT 10SM BKN100 M13/M15 A2943 RMK AO2 SLP002 T11281150 11106 21133 411001133 56014
Loading
Personal Weather Stations






























Interactive Weather Map New forecast layout! Learn more

10-Day Weather Forecast

Advertisements
Track Severe Weather on mobile